ADDS METAR Data INFO
IDs: Format: Raw Decoded Include TAF

Data at: 2241 UTC 22 Aug 2017

KGLS 222152Z 15011KT 10SM FEW018 FEW050 32/24 A3001 RMK AO2 SLP160 T03220239
KGLS 222052Z 13008KT 10SM FEW050 32/24 A3002 RMK AO2 SLP165 60000 T03220244 58018
KGLS 221952Z 10009KT 10SM FEW028 SCT043 33/25 A3005 RMK AO2 SLP175 T03280250
KGLS 221852Z VRB03KT 10SM FEW027 SCT037 31/24 A3007 RMK AO2 RAE1755 SLP181 P0000 T03110244
KGLS 221752Z 12004KT 10SM -RA FEW027 SCT032 BKN041 31/26 A3007 RMK AO2 RAE22B45 SLP183 P0001 60018 T03110261 10322 20261 50001
KGLS 221652Z 01005KT 10SM -RA FEW025 SCT038 BKN055 30/24 A3009 RMK AO2 PK WND 04027/1633 RAB18 SLP189 P0017 T03000244
KGLS 221552Z 36005KT 10SM FEW025 SCT030 BKN045 32/25 A3008 RMK AO2 SLP187 T03170250
KGLS 221452Z VRB04KT 10SM SCT027 31/25 A3007 RMK AO2 SLP183 T03060250 52015
KGLS 221352Z 33003KT 10SM CLR 29/25 A3006 RMK AO2 SLP178 T02940250
KGLS 221252Z 00000KT 10SM CLR 28/26 A3004 RMK AO2 SLP173 T02830256
KGLS 221152Z 00000KT 10SM FEW025 SCT036 28/25 A3003 RMK AO2 SLP168 T02780250 10289 20267 53002
KGLS 221052Z 00000KT 10SM CLR 28/25 A3002 RMK AO2 SLP165 T02780250
KGLS 220952Z AUTO 00000KT 10SM CLR 28/25 A3002 RMK AO2 SLP164 T02780250
KGLS 220852Z AUTO 19005KT 10SM CLR 28/24 A3002 RMK AO2 SLP166 T02780244 56014
KGLS 220752Z AUTO 19007KT 10SM CLR 29/25 A3003 RMK AO2 SLP170 T02890250
KGLS 220701Z AUTO 18006KT 10SM SCT026 BKN030 BKN043 29/26 A3004 RMK AO2 T02890256
KGLS 220652Z AUTO 19005KT 10SM BKN026 BKN037 BKN047 29/26 A3005 RMK AO2 SLP174 T02890256
KGLS 220552Z AUTO 16008KT 10SM CLR 29/24 A3006 RMK AO2 SLP180 T02890244 10306 20283 403280283 58004
KGLS 220452Z AUTO 13009KT 10SM FEW026 29/26 A3008 RMK AO2 SLP185 T02890256
KGLS 220352Z AUTO 13009KT 10SM CLR 29/25 A3008 RMK AO2 SLP186 T02940250
KGLS 220252Z AUTO 14011KT 10SM FEW027 SCT032 29/25 A3007 RMK AO2 SLP183 T02940250 51013
KGLS 220152Z AUTO 14006KT 10SM FEW026 29/25 A3006 RMK AO2 SLP180 T02940250
KGLS 220052Z AUTO 12007KT 10SM CLR 30/24 A3005 RMK AO2 SLP174 T03000244
KGLS 212352Z AUTO 12009KT 10SM FEW028 31/24 A3004 RMK AO2 SLP170 T03060244 10328 20306 58003
KGLS 212252Z 14011KT 10SM FEW026 SCT040 31/25 A3004 RMK AO2 SLP173 T03060250
KGLS 212152Z 13010KT 10SM SCT034 32/24 A3004 RMK AO2 SLP172 T03220244
KGLS 212052Z 12009KT 10SM SCT032 32/24 A3004 RMK AO2 SLP174 T03220244 58012
KGLS 211952Z 14010KT 10SM SCT030 33/25 A3006 RMK AO2 SLP178 T03280250
KGLS 211852Z 12009KT 10SM SCT030 31/24 A3007 RMK AO2 SLP182 T03110244
KGLS 211759Z 12008KT 10SM FEW029 32/24 A3008 RMK AO2 T03170244
KGLS 211752Z 13008KT 10SM BKN029 32/24 A3008 RMK AO2 SLP186 T03170244 10328 20283 50003
KGLS 211700Z 12009KT 10SM BKN029 32/25 A3009 RMK AO2 T03170250
KGLS 211652Z 12008KT 10SM SCT030 32/25 A3009 RMK AO2 SLP188 T03220250
KGLS 211552Z 13008KT 10SM SCT028 32/24 A3008 RMK AO2 SLP185 T03170244
KGLS 211452Z 13009KT 10SM FEW025 31/25 A3007 RMK AO2 SLP183 T03110250 53010
KGLS 211352Z 13009KT 10SM FEW025 31/24 A3007 RMK AO2 SLP181 T03060244
KGLS 211252Z 14006KT 10SM CLR 30/25 A3005 RMK AO2 SLP174 T03000250
KGLS 211152Z 13005KT 10SM CLR 28/25 A3004 RMK AO2 SLP173 T02830250 10294 20283 50001
KGLS 211052Z 13007KT 10SM CLR 29/25 A3005 RMK AO2 SLP174 T02890250